Latest Weather Observations for Halls Creek

IDD60801

Issued at 11:01 am CST Saturday 7 March 2015 (issued every 30 minutes, with the page automatically refreshed every 10 minutes)

About weather observations | Map of weather stations | Latest weather observations for NT | Other Formats
Station Details ID: 002012 Name: HALLS CREEK AIRPORT Lat: -18.23 Lon: 127.66 Height: 422.0 m
Data from the previous 72 hours. | See also: Recent months at Halls Creek
Date/Time
CST
Temp
°C
App
Temp
°C
Dew
Point
Rel
Hum
%
Delta-T
°C
Wind Press
QNH
hPa
Press
MSL
hPa
Rain
since 9 am
mm
Dir
 
Spd
km/h
Gust
km/h
Spd
kts
Gust
kts
07/11:00am 32.7 33.3 16.9 38 10.2 E 9 20 5 11 1011.5 - 0.0
07/10:30am 32.1 34.0 18.6 44 8.9 SE 6 13 3 7 1011.5 1008.3 0.2
07/10:00am 30.1 33.2 20.3 55 6.6 S 4 7 2 4 1011.5 - 0.2
07/09:30am 29.3 33.8 22.3 66 4.8 SE 2 7 1 4 1011.4 - 0.2
07/09:00am 28.1 32.8 22.6 72 3.8 S 2 6 1 3 1011.1 - 0.2
07/08:30am 25.7 30.3 23.2 86 1.7 S 4 6 2 3 1011.0 - 0.2
07/08:00am 24.4 29.1 23.4 94 0.7 S 4 6 2 3 1010.8 - 0.2
07/07:30am 22.9 27.4 22.3 96 0.4 SW 2 6 1 3 1010.8 1007.6 0.2
07/07:00am 22.5 26.6 22.2 98 0.2 NW 4 6 2 3 1010.4 - 0.2
07/06:30am 22.6 27.1 22.2 98 0.3 S 2 4 1 2 1010.1 - 0.2
07/06:00am 23.0 27.6 22.4 96 0.4 W 2 4 1 2 1009.9 - 0.2
07/05:30am 23.1 27.3 22.5 96 0.4 WNW 4 7 2 4 1009.6 - 0.2
07/05:00am 23.4 27.6 22.5 95 0.6 WNW 4 7 2 4 1009.4 - 0.2
07/04:30am 23.6 27.9 22.7 95 0.6 WNW 4 6 2 3 1009.5 1006.3 0.2
07/04:00am 24.0 28.6 22.4 91 1.1 WNW 2 4 1 2 1009.5 - 0.2
07/03:30am 23.8 28.0 22.5 92 0.9 SSW 4 6 2 3 1009.2 - 0.2
07/03:00am 23.8 28.7 23.1 96 0.5 WNW 2 4 1 2 1009.5 - 0.2
07/02:30am 23.9 28.8 23.0 95 0.6 SE 2 4 1 2 1009.6 - 0.2
07/02:00am 23.9 29.2 23.0 95 0.6 CALM 0 0 0 0 1010.2 - 0.2
07/01:30am 24.0 28.9 23.1 95 0.6 WNW 2 4 1 2 1010.5 1007.3 0.2
07/01:00am 24.0 28.9 23.0 94 0.7 SW 2 6 1 3 1010.6 - 0.2
07/12:30am 24.1 28.7 23.1 94 0.7 WSW 4 7 2 4 1011.0 - 0.2
07/12:00am 24.4 29.4 23.2 93 0.8 SW 2 6 1 3 1011.4 - 0.2
 
Date/Time
CST
Temp
°C
App
Temp
°C
Dew
Point
Rel
Hum
%
Delta-T
°C
Wind Press
QNH
hPa
Press
MSL
hPa
Rain
since 9 am
mm
Dir
 
Spd
km/h
Gust
km/h
Spd
kts
Gust
kts
06/11:30pm 24.6 29.2 23.1 91 1.0 WSW 4 7 2 4 1011.7 - 0.2
06/11:00pm 25.0 29.3 23.3 90 1.2 W 6 9 3 5 1011.8 - 0.2
06/10:30pm 25.5 29.6 23.3 88 1.5 WSW 7 15 4 8 1011.8 1008.6 0.2
06/10:00pm 26.0 29.8 23.4 85 1.8 WSW 9 20 5 11 1011.7 - 0.2
06/09:30pm 26.6 30.8 23.4 82 2.2 WSW 7 19 4 10 1011.2 - 0.2
06/09:00pm 27.0 31.5 23.6 81 2.4 WSW 6 13 3 7 1010.8 - 0.2
06/08:30pm 27.5 31.9 23.5 79 2.8 WSW 6 13 3 7 1010.5 - 0.2
06/08:00pm 28.1 32.5 23.5 76 3.2 W 6 11 3 6 1010.1 - 0.2
06/07:30pm 28.6 32.8 23.4 73 3.6 WSW 7 15 4 8 1009.7 1006.5 0.2
06/07:00pm 29.4 33.5 23.2 69 4.3 WSW 7 17 4 9 1009.5 - 0.2
06/06:30pm 31.4 35.1 22.3 58 6.3 WSW 6 20 3 11 1009.2 - 0.2
06/06:00pm 33.0 35.4 18.8 43 9.4 SSE 4 6 2 3 1008.9 - 0.2
06/05:30pm 33.6 33.9 14.6 31 11.9 ESE 6 9 3 5 1008.7 - 0.2
06/05:00pm 34.4 35.0 15.2 31 12.2 ESE 6 13 3 7 1008.7 - 0.2
06/04:30pm 34.6 34.5 13.9 28 12.9 ESE 7 17 4 9 1008.8 1005.6 0.2
06/04:00pm 34.8 34.1 14.4 29 12.8 ESE 11 24 6 13 1009.0 - 0.2
06/03:30pm 35.3 35.5 15.8 31 12.5 E 9 19 5 10 1009.2 - 0.2
06/03:00pm 34.8 34.1 15.5 31 12.3 SE 13 26 7 14 1009.8 - 0.2
06/02:30pm 34.7 34.8 15.6 32 12.2 ESE 9 20 5 11 1010.3 - 0.2
06/02:00pm 34.1 35.5 18.6 40 10.3 SSE 9 19 5 10 1010.7 - 0.2
06/01:30pm 33.1 34.7 19.9 45 8.9 E 11 22 6 12 1011.2 1008.0 0.2
06/01:00pm 32.5 34.7 20.5 49 8.1 SE 9 15 5 8 1011.5 - 0.2
06/12:30pm 31.3 34.9 22.3 58 6.2 SE 7 19 4 10 1012.0 - 0.2
06/12:00pm 29.4 33.3 22.9 68 4.5 SW 7 15 4 8 1012.9 - 0.2
06/11:30am 28.1 32.2 23.2 74 3.4 WSW 7 15 4 8 1013.7 - 0.0
06/11:00am 25.9 30.1 23.1 84 1.9 W 6 9 3 5 1014.1 - 0.0
06/10:30am 25.1 29.2 22.9 87 1.5 NW 6 15 3 8 1014.1 1010.9 11.2
06/10:00am 25.1 28.7 23.1 89 1.4 WNW 9 17 5 9 1013.8 - 11.2
06/09:30am 25.5 30.0 23.0 86 1.7 W 4 7 2 4 1013.1 - 11.2
06/09:00am 25.0 30.4 23.8 93 0.8 S 2 6 1 3 1013.0 - 11.2
06/08:30am 26.4 27.8 22.8 80 2.5 E 20 33 11 18 1012.8 - 0.6
06/08:00am 26.6 30.9 23.6 83 2.1 WSW 7 15 4 8 1011.3 - 0.4
06/07:30am 26.7 31.8 24.1 86 1.8 WSW 4 4 2 2 1011.0 1007.8 0.4
06/07:00am 26.6 31.8 23.6 83 2.1 NW 2 2 1 1 1010.9 - 0.4
06/06:30am 26.2 31.0 23.5 85 1.9 WSW 4 4 2 2 1010.8 - 0.4
06/06:00am 25.9 31.3 23.9 89 1.4 WSW 2 4 1 2 1010.7 - 0.4
06/05:30am 25.8 31.2 23.8 89 1.4 SW 2 6 1 3 1010.7 - 0.4
06/05:00am 26.6 31.9 23.7 84 2.0 SE 2 2 1 1 1011.1 - 0.0
06/04:30am 26.8 32.2 23.2 80 2.5 CALM 0 0 0 0 1011.1 1007.9 0.0
06/04:00am 26.9 31.7 22.8 78 2.8 NNW 2 4 1 2 1011.1 - 0.0
06/03:30am 26.8 31.4 22.4 77 3.0 N 2 4 1 2 1010.7 - 0.0
06/03:00am 26.6 30.8 22.5 78 2.8 ENE 4 6 2 3 1010.5 - 0.0
06/02:30am 26.6 31.2 22.5 78 2.8 ENE 2 4 1 2 1010.7 - 0.0
06/02:00am 26.5 31.5 23.2 82 2.3 E 2 4 1 2 1010.9 - 0.0
06/01:30am 27.1 31.6 22.3 75 3.3 ENE 2 4 1 2 1011.2 1008.0 0.0
06/01:00am 27.3 31.8 22.2 73 3.5 NE 2 4 1 2 1011.6 - 0.0
06/12:30am 27.6 32.1 22.2 72 3.7 E 2 4 1 2 1011.9 - 0.0
06/12:00am 28.0 32.3 22.0 70 4.1 NNE 2 4 1 2 1012.1 - 0.0
 
Date/Time
CST
Temp
°C
App
Temp
°C
Dew
Point
Rel
Hum
%
Delta-T
°C
Wind Press
QNH
hPa
Press
MSL
hPa
Rain
since 9 am
mm
Dir
 
Spd
km/h
Gust
km/h
Spd
kts
Gust
kts
05/11:30pm 28.3 32.8 22.2 69 4.2 ENE 2 4 1 2 1012.2 - 0.0
05/11:00pm 28.7 32.9 21.7 66 4.8 NE 2 4 1 2 1012.3 - 0.0
05/10:30pm 29.1 32.5 21.0 61 5.5 NNE 4 9 2 5 1012.2 1009.0 0.0
05/10:00pm 29.3 32.4 20.3 58 6.0 NE 4 6 2 3 1011.9 - 0.0
05/09:30pm 29.7 32.7 20.0 56 6.5 NE 4 6 2 3 1011.7 - 0.0
05/09:00pm 30.0 33.2 19.8 54 6.8 NE 2 6 1 3 1011.5 - 0.0
05/08:30pm 30.4 33.3 19.8 53 7.1 ENE 4 7 2 4 1011.0 - 0.0
05/08:00pm 30.9 33.1 19.1 49 7.8 E 6 13 3 7 1010.7 - 0.0
05/07:30pm 31.4 32.8 18.7 46 8.4 E 9 19 5 10 1010.2 1007.0 0.0
05/07:00pm 31.9 32.3 19.1 46 8.5 ESE 15 30 8 16 1010.1 - 0.0
05/06:30pm 32.9 32.9 19.8 46 8.8 E 19 37 10 20 1009.7 - 0.0
05/06:00pm 34.9 35.7 18.1 37 11.1 ENE 11 24 6 13 1009.1 - 0.0
05/05:30pm 35.0 36.3 18.4 37 11.0 NE 9 24 5 13 1008.6 - 0.0
05/05:00pm 33.8 36.6 20.8 46 8.9 NNE 7 17 4 9 1009.0 - 0.0
05/04:30pm 34.0 34.3 18.8 40 10.1 ENE 15 35 8 19 1009.2 1006.0 0.0
05/04:00pm 35.7 37.6 19.0 37 11.2 NE 7 17 4 9 1009.1 - 0.0
05/03:30pm 35.9 37.0 18.9 36 11.4 E 11 26 6 14 1009.3 - 0.0
05/03:00pm 36.1 37.4 18.4 35 11.8 E 9 22 5 12 1009.4 - 0.0
05/02:30pm 35.5 36.2 18.9 37 11.1 ESE 13 26 7 14 1009.9 - 0.0
05/02:00pm 35.8 36.1 17.9 34 11.8 E 13 28 7 15 1010.7 - 0.0
05/01:30pm 35.8 37.4 19.1 37 11.2 E 9 20 5 11 1011.2 1008.0 0.0
05/01:00pm 35.1 36.8 19.3 39 10.6 E 9 22 5 12 1011.9 - 0.0
05/12:30pm 35.2 37.2 20.0 41 10.3 ESE 9 20 5 11 1012.4 - 0.0
05/12:00pm 34.6 36.6 20.0 42 9.9 SE 9 19 5 10 1012.9 - 0.0
05/11:30am 33.7 36.4 20.6 46 8.9 SE 7 15 4 8 1013.0 - 0.0
05/11:00am 32.2 35.9 21.4 53 7.4 S 4 9 2 5 1012.9 - 0.0
05/10:30am 31.2 34.0 20.5 53 7.2 SW 6 11 3 6 1013.2 1010.0 0.0
05/10:00am 30.5 34.6 21.6 59 6.1 WSW 2 9 1 5 1013.3 - 0.0
05/09:30am 28.9 32.7 21.7 65 4.9 SW 4 9 2 5 1013.3 - 0.0
05/09:00am 28.2 31.8 22.1 69 4.2 SW 6 11 3 6 1013.1 - 0.0
05/08:30am 26.6 30.5 22.5 78 2.8 WSW 6 9 3 5 1012.9 - 0.0
05/08:00am 25.2 29.4 22.4 84 1.9 SW 4 7 2 4 1012.6 - 0.0
05/07:30am 24.2 28.9 22.6 91 1.1 SW 2 6 1 3 1012.6 1009.4 0.0
05/07:00am 23.9 28.0 22.3 91 1.1 SW 4 7 2 4 1012.2 - 0.0
05/06:30am 24.0 28.6 22.4 91 1.1 SSW 2 4 1 2 1011.6 - 0.0
05/06:00am 24.5 28.7 21.7 84 1.9 NW 2 4 1 2 1011.2 - 0.0
05/05:30am 24.6 28.5 21.9 85 1.8 NNW 4 6 2 3 1011.2 - 0.0
05/05:00am 24.5 29.0 22.3 87 1.5 N 2 6 1 3 1010.9 - 0.0
05/04:30am 24.8 29.1 22.0 84 1.9 NNW 2 4 1 2 1010.6 1007.4 0.0
05/04:00am 24.8 28.8 22.0 84 1.9 NW 4 7 2 4 1010.6 - 0.0
05/03:30am 24.5 28.7 22.4 88 1.4 WSW 4 6 2 3 1010.4 - 0.0
05/03:00am 24.5 29.3 22.9 91 1.1 WSW 2 4 1 2 1010.7 - 0.0
05/02:30am 25.0 29.5 22.2 84 1.9 SW 2 2 1 1 1010.8 - 0.0
05/02:00am 25.1 29.9 22.8 87 1.6 NW 2 4 1 2 1011.2 - 0.0
05/01:30am 25.7 31.0 23.1 85 1.8 CALM 0 2 0 1 1011.5 1008.3 0.0
05/01:00am 25.8 30.5 22.6 82 2.2 W 2 4 1 2 1011.5 - 0.0
05/12:30am 25.8 29.9 22.3 81 2.4 SW 4 6 2 3 1011.8 - 0.0
05/12:00am 26.2 30.5 21.9 77 2.9 W 2 2 1 1 1012.4 - 0.0
 
Date/Time
CST
Temp
°C
App
Temp
°C
Dew
Point
Rel
Hum
%
Delta-T
°C
Wind Press
QNH
hPa
Press
MSL
hPa
Rain
since 9 am
mm
Dir
 
Spd
km/h
Gust
km/h
Spd
kts
Gust
kts
04/11:30pm 26.6 30.4 21.7 74 3.3 NW 4 7 2 4 1012.6 - 0.0
04/11:00pm 26.8 30.4 22.0 75 3.3 NW 6 9 3 5 1012.2 - 0.0
04/10:30pm 27.2 31.4 23.2 79 2.8 N 6 13 3 7 1012.4 1009.3 0.0
04/10:00pm 27.7 32.4 22.6 74 3.5 NW 2 4 1 2 1012.0 - 0.0
04/09:30pm 27.5 32.3 22.9 76 3.2 SSW 2 4 1 2 1011.5 - 0.0
04/09:00pm 27.6 31.8 22.5 74 3.5 SW 4 6 2 3 1011.3 - 0.0
04/08:30pm 28.2 31.3 21.4 66 4.6 NW 7 13 4 7 1010.9 - 0.0
04/08:00pm 31.6 35.4 20.9 53 7.3 N 2 4 1 2 1010.3 - 0.0
04/07:30pm 32.2 35.9 20.7 50 7.8 NNE 2 6 1 3 1009.7 1006.5 0.0
04/07:00pm 33.0 35.2 19.6 45 9.0 ENE 7 17 4 9 1009.3 - 0.0
04/06:30pm 33.9 35.6 18.5 40 10.2 ENE 7 13 4 7 1008.9 - 0.0
04/06:00pm 33.4 34.6 18.2 40 10.0 ENE 9 20 5 11 1008.7 - 0.0
04/05:30pm 34.5 35.7 18.3 38 10.7 ENE 9 20 5 11 1008.5 - 0.0
04/05:00pm 34.7 36.4 19.4 40 10.3 E 9 20 5 11 1008.8 - 0.0
04/04:30pm 34.1 35.6 18.8 40 10.2 E 9 17 5 9 1009.0 1005.8 0.0
04/04:00pm 34.3 35.2 18.5 39 10.5 ENE 11 22 6 12 1009.3 - 0.0
04/03:30pm 34.3 35.0 18.8 40 10.3 E 13 26 7 14 1009.4 - 0.0
04/03:00pm 34.4 36.0 19.2 40 10.2 ENE 9 17 5 9 1009.6 - 0.0
04/02:30pm 34.1 36.1 19.9 43 9.6 ENE 9 24 5 13 1009.6 - 0.0
04/02:00pm 33.8 35.2 19.5 43 9.6 ENE 11 22 6 12 1010.1 - 0.0
04/01:30pm 33.6 35.7 20.1 45 9.1 E 9 20 5 11 1010.5 1007.3 0.0
04/01:00pm 33.4 34.7 20.1 45 9.0 ENE 13 26 7 14 1010.9 - 0.0

Other Formats:

Comma delimited format used in spreadsheet applications
http://www.bom.gov.au/fwo/IDD60801/IDD60801.94212.axf

JavaScript Object Notation format (JSON) in row-major order
http://www.bom.gov.au/fwo/IDD60801/IDD60801.94212.json